Aviation Digital Data Service (ADDS)

Output produced by METARs form (2157 UTC 03 July 2015)
found at http://aviationweather.gov/adds/metars/
 
KPGV 031746Z 0318/0418 17007KT P6SM BKN030 
     FM032100 21010KT P6SM VCTS BKN035CB 
     TEMPO 0321/0401 3SM TSRA BKN020CB 
     FM040400 21007KT P6SM VCSH SCT010 BKN100 
     FM041500 24012KT P6SM SCT030 AMD LTD TO CLD VIS AND WIND